createdAt,value
2023-01-31T00:02:02.887Z,5.03
2023-01-31T00:07:01.777Z,5.00
2023-01-31T00:12:01.745Z,4.95
2023-01-31T00:17:01.666Z,4.89
2023-01-31T00:22:01.602Z,4.83
2023-01-31T00:27:01.516Z,4.76
2023-01-31T00:32:01.584Z,4.68
2023-01-31T00:37:01.424Z,4.61
2023-01-31T00:42:01.335Z,4.54
2023-01-31T00:47:01.282Z,4.47
2023-01-31T00:52:01.214Z,4.42
2023-01-31T00:57:01.138Z,4.39
2023-01-31T01:02:01.112Z,4.37
2023-01-31T01:07:24.360Z,4.35
2023-01-31T01:12:16.753Z,4.32
2023-01-31T01:17:16.688Z,4.29
2023-01-31T01:22:16.623Z,4.28
2023-01-31T01:27:16.578Z,4.29
2023-01-31T01:32:16.506Z,4.30
2023-01-31T01:37:16.477Z,4.32
2023-01-31T01:42:16.348Z,4.34
2023-01-31T01:47:16.322Z,4.36
2023-01-31T01:52:16.235Z,4.37
2023-01-31T01:57:16.191Z,4.37
2023-01-31T02:02:16.149Z,4.35
2023-01-31T02:07:16.061Z,4.32
2023-01-31T02:12:15.983Z,4.27
2023-01-31T02:17:15.946Z,4.23
2023-01-31T02:22:15.859Z,4.19
2023-01-31T02:27:15.809Z,4.15
2023-01-31T02:32:15.699Z,4.10
2023-01-31T02:37:15.659Z,4.02
2023-01-31T02:42:15.620Z,3.91
2023-01-31T02:47:15.550Z,3.80
2023-01-31T02:52:15.463Z,3.72
2023-01-31T02:57:15.417Z,3.66
2023-01-31T03:02:15.365Z,3.63
2023-01-31T03:07:15.283Z,3.61
2023-01-31T03:12:15.207Z,3.60
2023-01-31T03:17:15.152Z,3.59
2023-01-31T03:22:15.061Z,3.59
2023-01-31T03:27:15.088Z,3.60
2023-01-31T03:32:14.971Z,3.60
2023-01-31T03:37:15.592Z,3.59
2023-01-31T03:42:15.049Z,3.55
2023-01-31T03:47:14.769Z,3.50
2023-01-31T03:52:15.007Z,3.46
2023-01-31T03:57:14.659Z,3.40
2023-01-31T04:02:15.072Z,3.35
2023-01-31T04:07:14.541Z,3.29
2023-01-31T04:12:14.450Z,3.23
2023-01-31T04:17:14.439Z,3.18
2023-01-31T04:22:14.330Z,3.11
2023-01-31T04:27:14.246Z,3.03
2023-01-31T04:32:14.270Z,2.95
2023-01-31T04:37:14.131Z,2.88
2023-01-31T04:42:14.072Z,2.82
2023-01-31T04:47:13.987Z,2.77
2023-01-31T04:52:13.949Z,2.71
2023-01-31T04:57:13.857Z,2.66
2023-01-31T05:02:13.801Z,2.58
2023-01-31T05:07:13.757Z,2.51
2023-01-31T05:12:13.712Z,2.44
2023-01-31T05:17:24.609Z,2.37
2023-01-31T05:22:17.020Z,2.27
2023-01-31T05:27:16.971Z,2.17
2023-01-31T05:32:16.869Z,2.08
2023-01-31T05:37:16.835Z,1.99
2023-01-31T05:42:16.724Z,1.91
2023-01-31T05:47:16.688Z,1.82
2023-01-31T05:52:16.616Z,1.73
2023-01-31T05:57:16.547Z,1.64
2023-01-31T06:02:16.476Z,1.55
2023-01-31T06:07:16.427Z,1.46
2023-01-31T06:12:16.342Z,1.39
2023-01-31T06:17:16.339Z,1.32
2023-01-31T06:22:16.222Z,1.27
2023-01-31T06:27:16.188Z,1.22
2023-01-31T06:32:16.093Z,1.17
2023-01-31T06:37:16.120Z,1.13
2023-01-31T06:42:15.993Z,1.12
2023-01-31T06:47:15.935Z,1.13
2023-01-31T06:52:15.862Z,1.14
2023-01-31T06:57:15.808Z,1.16
2023-01-31T07:02:15.736Z,1.18
2023-01-31T07:07:15.661Z,1.20
2023-01-31T07:12:15.586Z,1.23
2023-01-31T07:17:15.548Z,1.29
2023-01-31T07:22:15.455Z,1.38
2023-01-31T07:27:15.449Z,1.50
2023-01-31T07:32:15.317Z,1.63
2023-01-31T07:37:15.272Z,1.77
2023-01-31T07:42:15.199Z,1.90
2023-01-31T07:47:15.149Z,2.02
2023-01-31T07:52:15.056Z,2.17
2023-01-31T07:57:15.023Z,2.39
2023-01-31T08:02:14.943Z,2.71
2023-01-31T08:07:14.906Z,3.05
2023-01-31T08:12:14.808Z,3.38
2023-01-31T08:17:14.785Z,3.76
2023-01-31T08:22:14.683Z,4.14
2023-01-31T08:27:14.637Z,4.52
2023-01-31T08:32:15.180Z,4.92
2023-01-31T08:37:16.307Z,5.62
2023-01-31T08:42:14.416Z,6.70
2023-01-31T08:47:14.377Z,7.40
2023-01-31T08:52:14.292Z,7.44
2023-01-31T08:57:14.238Z,7.12
2023-01-31T09:02:14.179Z,6.66
2023-01-31T09:07:14.098Z,6.19
2023-01-31T09:12:14.061Z,5.80
2023-01-31T09:17:14.051Z,5.50
2023-01-31T09:22:13.900Z,5.27
2023-01-31T09:27:13.883Z,5.11
2023-01-31T09:32:13.760Z,5.00
2023-01-31T09:37:13.725Z,4.94
2023-01-31T09:42:13.626Z,4.86
2023-01-31T09:47:13.620Z,4.79
2023-01-31T09:52:13.502Z,4.73
2023-01-31T09:57:13.439Z,4.76
2023-01-31T10:02:13.363Z,4.81
2023-01-31T10:07:13.327Z,4.80
2023-01-31T10:12:13.254Z,4.74
2023-01-31T10:17:13.244Z,4.72
2023-01-31T10:22:13.118Z,4.78
2023-01-31T10:27:13.041Z,4.82
2023-01-31T10:32:13.028Z,4.82
2023-01-31T10:37:12.942Z,4.81
2023-01-31T10:42:12.865Z,4.80
2023-01-31T10:47:12.797Z,4.78
2023-01-31T10:52:12.754Z,4.70
2023-01-31T10:57:12.706Z,4.63
2023-01-31T11:02:12.675Z,4.60
2023-01-31T11:07:12.562Z,4.59
2023-01-31T11:12:12.485Z,4.64
2023-01-31T11:17:12.411Z,4.72
2023-01-31T11:22:12.332Z,4.78
2023-01-31T11:27:12.292Z,4.83
2023-01-31T11:32:12.220Z,4.82
2023-01-31T11:37:12.167Z,4.77
2023-01-31T11:42:12.082Z,4.76
2023-01-31T11:47:12.051Z,4.81
2023-01-31T11:52:11.951Z,4.84
2023-01-31T11:57:11.864Z,4.85
2023-01-31T12:02:11.829Z,4.90
2023-01-31T12:07:11.779Z,4.94
2023-01-31T12:12:11.688Z,4.96
2023-01-31T12:17:11.715Z,5.08
2023-01-31T12:22:11.565Z,5.26
2023-01-31T12:27:11.515Z,5.33
2023-01-31T12:32:11.466Z,5.28
2023-01-31T12:37:11.389Z,5.21
2023-01-31T12:42:11.291Z,5.17
2023-01-31T12:47:12.023Z,5.12
2023-01-31T12:52:11.176Z,5.04
2023-01-31T12:57:11.126Z,4.98
2023-01-31T13:02:11.079Z,4.94
2023-01-31T13:07:11.009Z,4.91
2023-01-31T13:12:10.912Z,4.89
2023-01-31T13:17:10.864Z,4.87
2023-01-31T13:22:10.776Z,4.88
2023-01-31T13:27:10.729Z,4.92
2023-01-31T13:32:10.659Z,5.02
2023-01-31T13:37:10.604Z,5.12
2023-01-31T13:42:10.508Z,5.19
2023-01-31T13:47:10.451Z,5.26
2023-01-31T13:52:10.356Z,5.35
2023-01-31T13:57:10.337Z,5.46
2023-01-31T14:02:10.234Z,5.55
2023-01-31T14:07:10.308Z,5.60
2023-01-31T14:12:10.120Z,5.64
2023-01-31T14:17:10.046Z,5.65
2023-01-31T14:22:10.021Z,5.63
2023-01-31T14:27:09.934Z,5.62
2023-01-31T14:32:09.835Z,5.60
2023-01-31T14:37:09.808Z,5.60
2023-01-31T14:42:09.712Z,5.62
2023-01-31T14:47:09.674Z,5.64
2023-01-31T14:52:09.604Z,5.66
2023-01-31T14:57:09.633Z,5.67
2023-01-31T15:02:09.480Z,5.69
2023-01-31T15:07:09.396Z,5.69
2023-01-31T15:12:09.326Z,5.68
2023-01-31T15:17:17.448Z,5.65
2023-01-31T15:22:10.189Z,5.61
2023-01-31T15:27:09.125Z,5.55
2023-01-31T15:32:09.172Z,5.50
2023-01-31T15:37:09.012Z,5.43
2023-01-31T15:42:08.917Z,5.36
2023-01-31T15:47:08.869Z,5.30
2023-01-31T15:52:08.824Z,5.25
2023-01-31T15:57:08.752Z,5.21
2023-01-31T16:02:08.691Z,5.20
2023-01-31T16:07:08.611Z,5.19
2023-01-31T16:12:08.539Z,5.19
2023-01-31T16:17:08.476Z,5.18
2023-01-31T16:22:08.446Z,5.17
2023-01-31T16:27:08.340Z,5.16
2023-01-31T16:32:08.243Z,5.15
2023-01-31T16:37:08.242Z,5.15
2023-01-31T16:42:08.143Z,5.15
2023-01-31T16:47:08.103Z,5.15
2023-01-31T16:52:08.000Z,5.15
2023-01-31T16:57:08.007Z,5.15
2023-01-31T17:02:07.876Z,5.15
2023-01-31T17:07:07.823Z,5.14
2023-01-31T17:12:07.772Z,5.13
2023-01-31T17:17:16.193Z,5.12
2023-01-31T17:22:08.642Z,5.11
2023-01-31T17:27:07.551Z,5.10
2023-01-31T17:32:07.462Z,5.10
2023-01-31T17:37:07.406Z,5.10
2023-01-31T17:42:07.350Z,5.10
2023-01-31T17:47:07.314Z,5.09
2023-01-31T17:52:07.200Z,5.07
2023-01-31T17:57:07.158Z,5.05
2023-01-31T18:02:07.133Z,5.03
2023-01-31T18:07:07.038Z,5.02
2023-01-31T18:12:06.934Z,5.02
2023-01-31T18:17:06.867Z,5.03
2023-01-31T18:22:06.827Z,5.03
2023-01-31T18:27:06.769Z,5.04
2023-01-31T18:32:06.793Z,5.05
2023-01-31T18:37:06.674Z,5.06
2023-01-31T18:42:06.551Z,5.07
2023-01-31T18:47:06.525Z,5.08
2023-01-31T18:52:06.417Z,5.08
2023-01-31T18:57:06.370Z,5.08
2023-01-31T19:02:06.312Z,5.08
2023-01-31T19:07:06.259Z,5.08
2023-01-31T19:12:06.158Z,5.08
2023-01-31T19:17:06.135Z,5.09
2023-01-31T19:22:06.039Z,5.10
2023-01-31T19:27:05.985Z,5.11
2023-01-31T19:32:05.908Z,5.13
2023-01-31T19:37:05.814Z,5.14
2023-01-31T19:42:05.780Z,5.16
2023-01-31T19:47:05.711Z,5.17
2023-01-31T19:52:05.617Z,5.16
2023-01-31T19:57:05.582Z,5.16
2023-01-31T20:02:05.520Z,5.16
2023-01-31T20:07:05.435Z,5.16
2023-01-31T20:12:05.362Z,5.16
2023-01-31T20:17:05.392Z,5.17
2023-01-31T20:22:05.227Z,5.17
2023-01-31T20:27:05.170Z,5.18
2023-01-31T20:32:05.176Z,5.18
2023-01-31T20:37:05.045Z,5.18
2023-01-31T20:42:04.957Z,5.16
2023-01-31T20:47:04.914Z,5.15
2023-01-31T20:52:06.468Z,5.13
2023-01-31T20:57:04.773Z,5.13
2023-01-31T21:02:04.791Z,5.13
2023-01-31T21:07:04.662Z,5.14
2023-01-31T21:12:04.592Z,5.14
2023-01-31T21:17:04.499Z,5.14
2023-01-31T21:22:04.442Z,5.15
2023-01-31T21:27:05.215Z,5.15
2023-01-31T21:32:04.357Z,5.14
2023-01-31T21:37:04.281Z,5.13
2023-01-31T21:42:04.192Z,5.10
2023-01-31T21:47:04.112Z,5.07
2023-01-31T21:52:04.031Z,5.02
2023-01-31T21:57:03.985Z,4.97
2023-01-31T22:02:03.935Z,4.93
2023-01-31T22:07:03.861Z,4.91
2023-01-31T22:12:03.777Z,4.90
2023-01-31T22:17:03.717Z,4.88
2023-01-31T22:22:03.668Z,4.84
2023-01-31T22:27:03.593Z,4.79
2023-01-31T22:32:03.524Z,4.74
2023-01-31T22:37:03.434Z,4.72
2023-01-31T22:42:03.382Z,4.70
2023-01-31T22:47:03.344Z,4.69
2023-01-31T22:52:03.244Z,4.68
2023-01-31T22:57:03.199Z,4.67
2023-01-31T23:02:03.124Z,4.66
2023-01-31T23:07:03.097Z,4.65
2023-01-31T23:12:02.984Z,4.63
2023-01-31T23:17:02.955Z,4.62
2023-01-31T23:22:02.865Z,4.60
2023-01-31T23:27:02.823Z,4.58
2023-01-31T23:32:02.853Z,4.58
2023-01-31T23:37:02.684Z,4.58
2023-01-31T23:42:02.596Z,4.57
2023-01-31T23:47:02.547Z,4.57
2023-01-31T23:52:02.468Z,4.57
2023-01-31T23:57:02.417Z,4.57
